Time;durP1;ratioP1;P1;durP2;ratioP2;P2;SDS_P1;SDS_P2;PMS_P1;PMS_P2;Temp;Humidity;BMP_temperature;BMP_pressure;BME280_temperature;BME280_humidity;BME280_pressure;Samples;Min_cycle;Max_cycle;Signal;HPM_P1;HPM_P2
2023/12/24 00:01:33;;;;;;;;;;;7.60;99.90;;;;;;5064063;28;19927;-70
2023/12/24 00:04:01;;;;;;;;;;;7.60;99.90;;;;;;5061444;28;20218;-70
2023/12/24 00:06:28;;;;;;;;;;;7.60;99.90;;;;;;5063835;28;19964;-70
2023/12/24 00:08:54;;;;;;;;;;;7.70;99.90;;;;;;5064465;28;19984;-69
2023/12/24 00:11:21;;;;;;;;;;;7.60;99.90;;;;;;5063474;28;20158;-70
2023/12/24 00:13:47;;;;;;;;;;;7.60;99.90;;;;;;5064549;28;19921;-70
2023/12/24 00:16:14;;;;;;;;;;;7.60;99.90;;;;;;5062183;28;19956;-70
2023/12/24 00:18:41;;;;;;;;;;;7.60;99.90;;;;;;5059115;28;19921;-70
2023/12/24 00:21:09;;;;;;;;;;;7.60;99.90;;;;;;5064887;28;20118;-70
2023/12/24 00:23:35;;;;;;;;;;;7.60;99.90;;;;;;5063396;28;20179;-70
2023/12/24 00:26:02;;;;;;;;;;;7.60;99.90;;;;;;5052635;28;19996;-69
2023/12/24 00:28:28;;;;;;;;;;;7.60;99.90;;;;;;5062979;28;20170;-69
2023/12/24 00:30:55;;;;;;;;;;;7.60;99.90;;;;;;5063761;28;19983;-70
2023/12/24 00:33:22;;;;;;;;;;;7.60;99.90;;;;;;5062020;28;19989;-70
2023/12/24 00:35:48;;;;;;;;;;;7.50;99.90;;;;;;5065074;28;20121;-70
2023/12/24 00:38:16;;;;;;;;;;;7.50;99.90;;;;;;5060951;28;20000;-70
2023/12/24 00:40:43;;;;;;;;;;;7.50;99.90;;;;;;5061006;28;19952;-70
2023/12/24 00:43:10;;;;;;;;;;;7.50;99.90;;;;;;5055051;28;19921;-70
2023/12/24 00:45:36;;;;;;;;;;;7.60;99.90;;;;;;5062883;28;19980;-70
2023/12/24 00:48:03;;;;;;;;;;;7.50;99.90;;;;;;5057863;28;19921;-68
2023/12/24 00:50:30;;;;;;;;;;;7.50;99.90;;;;;;5064566;28;19983;-70
2023/12/24 00:52:56;;;;;;;;;;;7.50;99.90;;;;;;5055362;28;19987;-70
2023/12/24 00:55:24;;;;;;;;;;;7.50;99.90;;;;;;5063656;28;19920;-69
2023/12/24 00:57:51;;;;;;;;;;;7.50;99.90;;;;;;5060793;28;20000;-70
2023/12/24 01:00:18;;;;;;;;;;;7.60;99.90;;;;;;5062736;28;19920;-70
2023/12/24 01:02:44;;;;;;;;;;;7.50;99.90;;;;;;5047998;28;19987;-70
2023/12/24 01:05:11;;;;;;;;;;;7.50;99.90;;;;;;5060599;28;20163;-70
2023/12/24 01:07:37;;;;;;;;;;;7.60;99.90;;;;;;5064506;28;19927;-68
2023/12/24 01:10:05;;;;;;;;;;;7.50;99.90;;;;;;5060399;28;19920;-70
2023/12/24 01:12:33;;;;;;;;;;;7.60;99.90;;;;;;5058925;28;19921;-68
2023/12/24 01:15:00;;;;;;;;;;;7.50;99.90;;;;;;5062604;28;19921;-70
2023/12/24 01:17:27;;;;;;;;;;;7.50;99.90;;;;;;5061675;28;19980;-70
2023/12/24 01:19:53;;;;;;;;;;;7.50;99.90;;;;;;5054121;28;19921;-70
2023/12/24 01:22:20;;;;;;;;;;;7.50;99.90;;;;;;5064088;28;19956;-70
2023/12/24 01:24:46;;;;;;;;;;;7.50;99.90;;;;;;5057446;28;19952;-69
2023/12/24 01:27:13;;;;;;;;;;;7.50;99.90;;;;;;5059540;28;19959;-70
2023/12/24 01:29:41;;;;;;;;;;;7.40;99.90;;;;;;5063433;28;19979;-70
2023/12/24 01:32:08;;;;;;;;;;;7.40;99.90;;;;;;5060165;28;20350;-70
2023/12/24 01:34:34;;;;;;;;;;;7.30;99.90;;;;;;5063026;28;19939;-70
2023/12/24 01:37:01;;;;;;;;;;;7.30;99.90;;;;;;5062641;28;20211;-72
2023/12/24 01:39:27;;;;;;;;;;;7.30;99.90;;;;;;5061218;28;19992;-72
2023/12/24 01:41:54;;;;;;;;;;;7.30;99.90;;;;;;5063089;28;20258;-70
2023/12/24 01:44:20;;;;;;;;;;;7.40;99.90;;;;;;5058823;28;19929;-70
2023/12/24 01:46:48;;;;;;;;;;;7.40;99.90;;;;;;5051671;28;20106;-70
2023/12/24 01:49:15;;;;;;;;;;;7.40;99.90;;;;;;5058308;28;19984;-70
2023/12/24 01:51:42;;;;;;;;;;;7.50;99.90;;;;;;5064417;28;19956;-70
2023/12/24 01:54:09;;;;;;;;;;;7.50;99.90;;;;;;5055221;28;19942;-69
2023/12/24 01:56:38;;;;;;;;;;;7.60;99.90;;;;;;5061503;28;19992;-70
2023/12/24 01:59:05;;;;;;;;;;;7.60;99.90;;;;;;5062241;28;20152;-70
2023/12/24 02:01:31;;;;;;;;;;;7.70;99.90;;;;;;5061843;28;19920;-70
2023/12/24 02:04:00;;;;;;;;;;;7.70;99.90;;;;;;5056370;28;19981;-70
2023/12/24 02:06:27;;;;;;;;;;;7.70;99.90;;;;;;5059243;28;20032;-70
2023/12/24 02:08:53;;;;;;;;;;;7.70;99.90;;;;;;5063437;28;19952;-70
2023/12/24 02:11:21;;;;;;;;;;;7.70;99.90;;;;;;5061963;28;19959;-70
2023/12/24 02:13:47;;;;;;;;;;;7.70;99.90;;;;;;5060496;28;19920;-70
2023/12/24 02:16:16;;;;;;;;;;;7.70;99.90;;;;;;5063533;28;19983;-70
2023/12/24 02:18:42;;;;;;;;;;;7.70;99.90;;;;;;5055728;28;19988;-70
2023/12/24 02:21:10;;;;;;;;;;;7.70;99.90;;;;;;5062784;28;20007;-69
2023/12/24 02:23:37;;;;;;;;;;;7.70;99.90;;;;;;5062556;28;19980;-70
2023/12/24 02:26:07;;;;;;;;;;;7.80;99.90;;;;;;5054369;28;19921;-70
2023/12/24 02:28:38;;;;;;;;;;;7.70;99.90;;;;;;5061847;28;19984;-69
2023/12/24 02:31:07;;;;;;;;;;;7.70;99.90;;;;;;5063051;28;19988;-70
2023/12/24 02:33:36;;;;;;;;;;;7.70;99.90;;;;;;5059065;28;20189;-70
2023/12/24 02:36:03;;;;;;;;;;;7.70;99.90;;;;;;5059254;28;20266;-70
2023/12/24 02:38:31;;;;;;;;;;;7.70;99.90;;;;;;5059661;28;19967;-70
2023/12/24 02:40:58;;;;;;;;;;;7.80;99.90;;;;;;5062175;28;19956;-70
2023/12/24 02:43:24;;;;;;;;;;;7.70;99.90;;;;;;5061719;28;19952;-70
2023/12/24 02:45:51;;;;;;;;;;;7.80;99.90;;;;;;5061936;28;19927;-70
2023/12/24 02:48:17;;;;;;;;;;;7.70;99.90;;;;;;5052556;28;20259;-70
2023/12/24 02:50:44;;;;;;;;;;;7.70;99.90;;;;;;5061693;28;19921;-70
2023/12/24 02:53:11;;;;;;;;;;;7.80;99.90;;;;;;5061678;28;19992;-70
2023/12/24 02:55:39;;;;;;;;;;;7.70;99.90;;;;;;5064297;28;19984;-70
2023/12/24 02:58:06;;;;;;;;;;;7.80;99.90;;;;;;5066429;28;20000;-70
2023/12/24 03:00:32;;;;;;;;;;;7.80;99.90;;;;;;5058806;28;19927;-70
2023/12/24 03:02:59;;;;;;;;;;;7.80;99.90;;;;;;5065395;28;20211;-70
2023/12/24 03:05:26;;;;;;;;;;;7.80;99.90;;;;;;5058344;28;19952;-71
2023/12/24 03:07:52;;;;;;;;;;;7.80;99.90;;;;;;5052667;28;20110;-70
2023/12/24 03:10:19;;;;;;;;;;;7.80;99.90;;;;;;5065070;28;19920;-70
2023/12/24 03:12:47;;;;;;;;;;;7.80;99.90;;;;;;5058739;28;19928;-70
2023/12/24 03:15:13;;;;;;;;;;;7.80;99.90;;;;;;5060422;28;19979;-70
2023/12/24 03:17:40;;;;;;;;;;;7.80;99.90;;;;;;5063627;28;19962;-70
2023/12/24 03:20:08;;;;;;;;;;;7.80;99.90;;;;;;5065761;28;19920;-70
2023/12/24 03:22:34;;;;;;;;;;;7.80;99.90;;;;;;5064769;28;19951;-69
2023/12/24 03:25:01;;;;;;;;;;;7.80;99.90;;;;;;5066650;28;19927;-70
2023/12/24 03:27:28;;;;;;;;;;;7.90;99.90;;;;;;5064592;28;19980;-69
2023/12/24 03:29:56;;;;;;;;;;;7.80;99.90;;;;;;5065431;28;19948;-70
2023/12/24 03:32:22;;;;;;;;;;;7.90;99.90;;;;;;5064530;28;19920;-70
2023/12/24 03:34:49;;;;;;;;;;;7.90;99.90;;;;;;5059168;28;20114;-70
2023/12/24 03:37:15;;;;;;;;;;;7.90;99.90;;;;;;5065267;28;19935;-73
2023/12/24 03:39:42;;;;;;;;;;;7.90;99.90;;;;;;5065376;28;20092;-70
2023/12/24 03:42:09;;;;;;;;;;;7.90;99.90;;;;;;5066046;28;19920;-70
2023/12/24 03:44:36;;;;;;;;;;;7.90;99.90;;;;;;5056226;28;19937;-70
2023/12/24 03:47:04;;;;;;;;;;;7.90;99.90;;;;;;5060727;28;19920;-70
2023/12/24 03:49:30;;;;;;;;;;;7.80;99.90;;;;;;5065318;28;20305;-70
2023/12/24 03:51:57;;;;;;;;;;;7.90;99.90;;;;;;5063487;28;19927;-69
2023/12/24 03:54:24;;;;;;;;;;;7.80;99.90;;;;;;5065285;28;20214;-70
2023/12/24 03:56:50;;;;;;;;;;;7.90;99.90;;;;;;5065071;28;19983;-70
2023/12/24 03:59:17;;;;;;;;;;;7.80;99.90;;;;;;5064893;28;19963;-68
2023/12/24 04:01:44;;;;;;;;;;;7.80;99.90;;;;;;5058842;28;19967;-70
2023/12/24 04:04:12;;;;;;;;;;;7.90;99.90;;;;;;5061675;28;20161;-70
2023/12/24 04:06:39;;;;;;;;;;;7.90;99.90;;;;;;5059635;28;19960;-70
2023/12/24 04:09:05;;;;;;;;;;;7.90;99.90;;;;;;5061884;28;19980;-70
2023/12/24 04:11:32;;;;;;;;;;;7.80;99.90;;;;;;5064595;28;19979;-70
2023/12/24 04:13:58;;;;;;;;;;;7.90;99.90;;;;;;5059330;28;20238;-70
2023/12/24 04:16:25;;;;;;;;;;;7.90;99.90;;;;;;5062370;28;19921;-70
2023/12/24 04:18:51;;;;;;;;;;;7.80;99.90;;;;;;5062502;28;20125;-69
2023/12/24 04:21:19;;;;;;;;;;;7.90;99.90;;;;;;5064469;28;19927;-70
2023/12/24 04:23:46;;;;;;;;;;;7.90;99.90;;;;;;5058779;28;20004;-70
2023/12/24 04:26:13;;;;;;;;;;;7.80;99.90;;;;;;5065582;28;19984;-70
2023/12/24 04:28:39;;;;;;;;;;;7.90;99.90;;;;;;5057262;28;19921;-72
2023/12/24 04:31:06;;;;;;;;;;;7.80;99.90;;;;;;5059359;28;19983;-70
2023/12/24 04:33:33;;;;;;;;;;;7.90;99.90;;;;;;5060768;28;19964;-70
2023/12/24 04:35:59;;;;;;;;;;;7.80;99.90;;;;;;5060762;28;19927;-70
2023/12/24 04:38:27;;;;;;;;;;;7.80;99.90;;;;;;5063251;28;19981;-70
2023/12/24 04:40:54;;;;;;;;;;;7.80;99.90;;;;;;5064730;28;20440;-70
2023/12/24 04:43:20;;;;;;;;;;;7.80;99.90;;;;;;5064051;28;19959;-70
2023/12/24 04:45:47;;;;;;;;;;;7.80;99.90;;;;;;5064504;28;19987;-70
2023/12/24 04:48:14;;;;;;;;;;;7.80;99.90;;;;;;5063477;28;19955;-70
2023/12/24 04:50:40;;;;;;;;;;;7.80;99.90;;;;;;5061269;28;20207;-70
2023/12/24 04:53:07;;;;;;;;;;;7.70;99.90;;;;;;5064566;28;20027;-70
2023/12/24 04:55:36;;;;;;;;;;;7.70;99.90;;;;;;5063692;28;19921;-70
2023/12/24 04:58:02;;;;;;;;;;;7.70;99.90;;;;;;5063529;28;20087;-69
2023/12/24 05:00:29;;;;;;;;;;;7.70;99.90;;;;;;5061597;28;19959;-70
2023/12/24 05:02:55;;;;;;;;;;;7.70;99.90;;;;;;5062472;28;19921;-70
2023/12/24 05:05:24;;;;;;;;;;;7.70;99.90;;;;;;5062652;28;19927;-70
2023/12/24 05:07:50;;;;;;;;;;;7.60;99.90;;;;;;5064317;28;20257;-70
2023/12/24 05:10:17;;;;;;;;;;;7.70;99.90;;;;;;5063477;28;19927;-69
2023/12/24 05:12:46;;;;;;;;;;;7.70;99.90;;;;;;5063123;28;20180;-70
2023/12/24 05:15:12;;;;;;;;;;;7.70;99.90;;;;;;5064460;28;19982;-70
2023/12/24 05:17:39;;;;;;;;;;;7.70;99.90;;;;;;5062314;28;19920;-69
2023/12/24 05:20:06;;;;;;;;;;;7.70;99.90;;;;;;5063897;28;19921;-70
2023/12/24 05:22:32;;;;;;;;;;;7.70;99.90;;;;;;5057928;28;19928;-70
2023/12/24 05:24:59;;;;;;;;;;;7.70;99.90;;;;;;5060976;28;20179;-69
2023/12/24 05:27:26;;;;;;;;;;;7.70;99.90;;;;;;5056510;28;19984;-70
2023/12/24 05:29:54;;;;;;;;;;;7.70;99.90;;;;;;5063928;28;20229;-70
2023/12/24 05:32:20;;;;;;;;;;;7.70;99.90;;;;;;5062511;28;19980;-72
2023/12/24 05:34:47;;;;;;;;;;;7.70;99.90;;;;;;5059406;28;19927;-71
2023/12/24 05:37:14;;;;;;;;;;;7.70;99.90;;;;;;5063653;28;19920;-70
2023/12/24 05:39:41;;;;;;;;;;;7.70;99.90;;;;;;5047588;28;19928;-70
2023/12/24 05:42:08;;;;;;;;;;;7.70;99.90;;;;;;5046771;28;20281;-69
2023/12/24 05:44:35;;;;;;;;;;;7.70;99.90;;;;;;5047551;28;20004;-70
2023/12/24 05:47:03;;;;;;;;;;;7.70;99.90;;;;;;5049545;28;19952;-70
2023/12/24 05:49:29;;;;;;;;;;;7.70;99.90;;;;;;5047160;28;19921;-70
2023/12/24 05:51:56;;;;;;;;;;;7.70;99.90;;;;;;5047849;28;19928;-70
2023/12/24 05:54:22;;;;;;;;;;;7.70;99.90;;;;;;5044980;28;19935;-70
2023/12/24 05:56:49;;;;;;;;;;;7.70;99.90;;;;;;5047193;28;19996;-69
2023/12/24 05:59:16;;;;;;;;;;;7.70;99.90;;;;;;5047624;28;19928;-69
2023/12/24 06:01:43;;;;;;;;;;;7.70;99.90;;;;;;5047154;28;19991;-69
2023/12/24 06:04:11;;;;;;;;;;;7.70;99.90;;;;;;5044791;28;19980;-70
2023/12/24 06:06:40;;;;;;;;;;;7.70;99.90;;;;;;5047352;28;19988;-70
2023/12/24 06:09:06;;;;;;;;;;;7.80;99.90;;;;;;5043862;28;19988;-70
2023/12/24 06:11:33;;;;;;;;;;;7.80;99.90;;;;;;5046467;28;19920;-70
2023/12/24 06:14:00;;;;;;;;;;;7.70;99.90;;;;;;5046559;28;20211;-70
2023/12/24 06:16:26;;;;;;;;;;;7.80;99.90;;;;;;5046308;28;19921;-70
2023/12/24 06:18:53;;;;;;;;;;;7.80;99.90;;;;;;5044767;28;19921;-70
2023/12/24 06:21:21;;;;;;;;;;;7.80;99.90;;;;;;5046028;28;20138;-70
2023/12/24 06:23:49;;;;;;;;;;;7.80;99.90;;;;;;5046204;28;20004;-70
2023/12/24 06:26:16;;;;;;;;;;;7.80;99.90;;;;;;5049398;28;19921;-69
2023/12/24 06:28:42;;;;;;;;;;;7.80;99.90;;;;;;5060000;28;20177;-70
2023/12/24 06:31:09;;;;;;;;;;;7.80;99.90;;;;;;5061943;28;19928;-69
2023/12/24 06:33:36;;;;;;;;;;;7.90;99.90;;;;;;5054419;28;19976;-70
2023/12/24 06:36:03;;;;;;;;;;;7.90;99.90;;;;;;5059414;28;19984;-70
2023/12/24 06:38:31;;;;;;;;;;;7.90;99.90;;;;;;5052863;28;19984;-70
2023/12/24 06:40:57;;;;;;;;;;;7.90;99.90;;;;;;5060823;28;20004;-70
2023/12/24 06:43:24;;;;;;;;;;;7.90;99.90;;;;;;5061798;28;19959;-70
2023/12/24 06:45:50;;;;;;;;;;;7.90;99.90;;;;;;5060954;28;19971;-70
2023/12/24 06:48:17;;;;;;;;;;;7.90;99.90;;;;;;5060638;28;19921;-70
2023/12/24 06:50:43;;;;;;;;;;;7.90;99.90;;;;;;5062266;28;20173;-70
2023/12/24 06:53:10;;;;;;;;;;;7.80;99.90;;;;;;5055670;28;19921;-70
2023/12/24 06:55:38;;;;;;;;;;;7.80;99.90;;;;;;5050186;28;20423;-70
2023/12/24 06:58:06;;;;;;;;;;;7.80;99.90;;;;;;5058418;28;19956;-70
2023/12/24 07:00:33;;;;;;;;;;;7.80;99.90;;;;;;5053362;28;20282;-70
2023/12/24 07:03:00;;;;;;;;;;;7.80;99.90;;;;;;5055457;28;19928;-70
2023/12/24 07:05:27;;;;;;;;;;;7.80;99.90;;;;;;5054492;28;19921;-70
2023/12/24 07:07:54;;;;;;;;;;;7.80;99.90;;;;;;5057655;28;19924;-70
2023/12/24 07:10:21;;;;;;;;;;;7.90;99.90;;;;;;5059681;28;19920;-70
2023/12/24 07:15:32;;;;;;;;;;;7.90;99.90;;;;;;5117993;27;19979;-71
2023/12/24 07:17:59;;;;;;;;;;;7.90;99.90;;;;;;5102813;28;20273;-71
2023/12/24 07:20:26;;;;;;;;;;;7.90;99.90;;;;;;5101074;28;20014;-70
2023/12/24 07:22:52;;;;;;;;;;;7.90;99.90;;;;;;5106286;28;20256;-73
2023/12/24 07:25:19;;;;;;;;;;;7.90;99.90;;;;;;5100459;28;19947;-72
2023/12/24 07:27:45;;;;;;;;;;;7.90;99.90;;;;;;5102461;28;19995;-71
2023/12/24 07:30:13;;;;;;;;;;;7.90;99.90;;;;;;5091768;28;19928;-71
2023/12/24 07:32:44;;;;;;;;;;;7.90;99.90;;;;;;5092014;28;20429;-71
2023/12/24 07:35:11;;;;;;;;;;;7.90;99.90;;;;;;5105420;28;19927;-71
2023/12/24 07:37:38;;;;;;;;;;;7.80;99.90;;;;;;5105353;28;20228;-71
2023/12/24 07:40:05;;;;;;;;;;;7.90;99.90;;;;;;5104008;28;19958;-71
2023/12/24 07:42:33;;;;;;;;;;;7.80;99.90;;;;;;5101519;28;20152;-71
2023/12/24 07:44:59;;;;;;;;;;;7.80;99.90;;;;;;5105049;28;19999;-71
2023/12/24 07:47:26;;;;;;;;;;;7.80;99.90;;;;;;5105950;28;20170;-72
2023/12/24 07:49:54;;;;;;;;;;;7.70;99.90;;;;;;5102110;28;19932;-71
2023/12/24 07:52:20;;;;;;;;;;;7.60;99.90;;;;;;5105171;28;19927;-71
2023/12/24 07:54:47;;;;;;;;;;;7.50;99.90;;;;;;5103583;28;19920;-71
2023/12/24 07:57:14;;;;;;;;;;;7.40;99.90;;;;;;5103660;28;19920;-71
2023/12/24 07:59:41;;;;;;;;;;;7.20;99.90;;;;;;5103724;28;20236;-71
2023/12/24 08:02:08;;;;;;;;;;;7.20;99.90;;;;;;5103334;28;19962;-72
2023/12/24 08:04:35;;;;;;;;;;;7.10;99.90;;;;;;5108089;28;20117;-71
2023/12/24 08:07:03;;;;;;;;;;;7.00;99.90;;;;;;5099568;28;19920;-71
2023/12/24 08:09:30;;;;;;;;;;;7.00;99.90;;;;;;5102399;28;19951;-71
2023/12/24 08:11:56;;;;;;;;;;;7.10;99.90;;;;;;5102733;28;19991;-71
2023/12/24 08:14:23;;;;;;;;;;;7.10;99.90;;;;;;5115908;28;19979;-71
2023/12/24 08:16:50;;;;;;;;;;;7.00;99.90;;;;;;5121702;28;19943;-73
2023/12/24 08:19:17;;;;;;;;;;;7.00;99.90;;;;;;5122964;28;19928;-72
2023/12/24 08:21:43;;;;;;;;;;;7.00;99.90;;;;;;5125343;28;19947;-71
2023/12/24 08:24:11;;;;;;;;;;;7.00;99.90;;;;;;5121836;28;19951;-71
2023/12/24 08:26:38;;;;;;;;;;;7.00;99.90;;;;;;5107011;28;20167;-71
2023/12/24 08:29:04;;;;;;;;;;;7.00;99.90;;;;;;5099604;28;19920;-71
2023/12/24 08:31:31;;;;;;;;;;;6.90;99.90;;;;;;5106042;28;20213;-71
2023/12/24 08:33:58;;;;;;;;;;;7.00;99.90;;;;;;5111654;28;20148;-72
2023/12/24 08:36:24;;;;;;;;;;;7.00;99.90;;;;;;5106373;28;19983;-71
2023/12/24 08:38:51;;;;;;;;;;;6.90;99.90;;;;;;5107197;28;19920;-71
2023/12/24 08:41:19;;;;;;;;;;;7.00;99.90;;;;;;5112581;28;19919;-71
2023/12/24 08:43:46;;;;;;;;;;;6.90;99.90;;;;;;5121798;28;20045;-70
2023/12/24 08:46:12;;;;;;;;;;;7.00;99.90;;;;;;5104853;28;19987;-72
2023/12/24 08:48:39;;;;;;;;;;;6.90;99.90;;;;;;5108153;28;19926;-71
2023/12/24 08:51:05;;;;;;;;;;;6.90;99.90;;;;;;5110736;28;19920;-71
2023/12/24 08:53:32;;;;;;;;;;;6.90;99.90;;;;;;5108711;28;19920;-70
2023/12/24 08:55:58;;;;;;;;;;;6.90;99.90;;;;;;5110874;28;19979;-73
2023/12/24 08:58:27;;;;;;;;;;;6.90;99.90;;;;;;5108728;28;19988;-71
2023/12/24 09:00:53;;;;;;;;;;;6.90;99.90;;;;;;5108857;28;20275;-73
2023/12/24 09:03:20;;;;;;;;;;;6.90;99.90;;;;;;5109456;28;19928;-73
2023/12/24 09:05:46;;;;;;;;;;;6.90;99.90;;;;;;5111641;28;19991;-71
2023/12/24 09:08:13;;;;;;;;;;;6.90;99.90;;;;;;5111156;28;19983;-72
2023/12/24 09:10:41;;;;;;;;;;;6.90;99.90;;;;;;5105732;28;19928;-70
2023/12/24 09:13:07;;;;;;;;;;;7.00;99.90;;;;;;5107558;28;19955;-72
2023/12/24 09:15:35;;;;;;;;;;;7.00;99.90;;;;;;5108206;28;19932;-71
2023/12/24 09:18:02;;;;;;;;;;;7.00;99.90;;;;;;5108752;28;19931;-74
2023/12/24 09:20:29;;;;;;;;;;;7.00;99.90;;;;;;5108436;28;19987;-71
2023/12/24 09:22:55;;;;;;;;;;;7.00;99.90;;;;;;5106458;28;19920;-72
2023/12/24 09:25:22;;;;;;;;;;;6.90;99.90;;;;;;5107156;28;19966;-70
2023/12/24 09:27:48;;;;;;;;;;;7.00;99.90;;;;;;5108946;28;20173;-70
2023/12/24 09:30:15;;;;;;;;;;;7.00;99.90;;;;;;5107616;28;19987;-72
2023/12/24 09:32:43;;;;;;;;;;;7.00;99.90;;;;;;5107318;28;19955;-71
2023/12/24 09:35:10;;;;;;;;;;;7.00;99.90;;;;;;5108648;28;19996;-71
2023/12/24 09:37:37;;;;;;;;;;;7.00;99.90;;;;;;5110998;28;19987;-71
2023/12/24 09:40:04;;;;;;;;;;;7.00;99.90;;;;;;5112372;28;19942;-70
2023/12/24 09:42:30;;;;;;;;;;;7.00;99.90;;;;;;5104957;28;19991;-73
2023/12/24 09:44:57;;;;;;;;;;;7.00;99.90;;;;;;5106316;28;20259;-71
2023/12/24 09:47:23;;;;;;;;;;;7.00;99.90;;;;;;5105987;28;19966;-71
2023/12/24 09:49:51;;;;;;;;;;;7.00;99.90;;;;;;5107212;28;20113;-71
2023/12/24 09:52:19;;;;;;;;;;;7.00;99.90;;;;;;5106646;28;19981;-70
2023/12/24 09:54:46;;;;;;;;;;;7.10;99.90;;;;;;5110433;28;20278;-71
2023/12/24 09:57:13;;;;;;;;;;;7.00;99.90;;;;;;5108155;28;19982;-71
2023/12/24 09:59:39;;;;;;;;;;;7.10;99.90;;;;;;5102240;28;19920;-70
2023/12/24 10:02:06;;;;;;;;;;;7.10;99.90;;;;;;5106525;28;19926;-71
2023/12/24 10:04:33;;;;;;;;;;;7.10;99.90;;;;;;5108019;28;19991;-71
2023/12/24 10:07:01;;;;;;;;;;;7.10;99.90;;;;;;5105380;28;20194;-71
2023/12/24 10:09:42;;;;;;;;;;;7.10;99.90;;;;;;5105783;28;19948;-71
2023/12/24 10:12:09;;;;;;;;;;;7.10;99.90;;;;;;5105930;28;19970;-71
2023/12/24 10:14:36;;;;;;;;;;;7.20;99.90;;;;;;5105327;28;20118;-70
2023/12/24 10:17:03;;;;;;;;;;;7.10;99.90;;;;;;5106479;28;19920;-71
2023/12/24 10:19:30;;;;;;;;;;;7.20;99.90;;;;;;5105872;28;19927;-71
2023/12/24 10:22:02;;;;;;;;;;;7.20;99.90;;;;;;5106517;28;19920;-71
2023/12/24 10:24:29;;;;;;;;;;;7.20;99.90;;;;;;5117260;28;20160;-71
2023/12/24 10:27:02;;;;;;;;;;;7.30;99.90;;;;;;5108854;28;19962;-72
2023/12/24 10:29:29;;;;;;;;;;;7.30;99.90;;;;;;5097059;28;19927;-71
2023/12/24 10:32:14;;;;;;;;;;;7.30;99.90;;;;;;5098627;28;19920;-70
2023/12/24 10:34:40;;;;;;;;;;;7.30;99.90;;;;;;5099924;28;19920;-71
2023/12/24 10:37:18;;;;;;;;;;;7.30;99.90;;;;;;5100834;28;19935;-71
2023/12/24 10:39:45;;;;;;;;;;;7.40;99.90;;;;;;5095894;28;19987;-71
2023/12/24 10:42:12;;;;;;;;;;;7.40;99.90;;;;;;5101772;28;19986;-74
2023/12/24 10:44:39;;;;;;;;;;;7.40;99.90;;;;;;5100516;28;19987;-72
2023/12/24 10:47:07;;;;;;;;;;;7.40;99.90;;;;;;5098747;28;19920;-71
2023/12/24 10:49:34;;;;;;;;;;;7.40;99.90;;;;;;5103903;28;19919;-71
2023/12/24 10:52:00;;;;;;;;;;;7.40;99.90;;;;;;5103074;28;20253;-73
2023/12/24 10:54:28;;;;;;;;;;;7.50;99.90;;;;;;5103414;28;19987;-71
2023/12/24 10:57:00;;;;;;;;;;;7.50;99.90;;;;;;5109526;28;20226;-71
2023/12/24 10:59:48;;;;;;;;;;;7.50;99.90;;;;;;5106428;28;19947;-71
2023/12/24 11:02:14;;;;;;;;;;;7.60;99.90;;;;;;5109367;28;20000;-71
2023/12/24 11:04:41;;;;;;;;;;;7.60;99.90;;;;;;5095275;28;19987;-71
2023/12/24 11:07:08;;;;;;;;;;;7.60;99.90;;;;;;5108672;28;20284;-71
2023/12/24 11:09:45;;;;;;;;;;;7.60;99.90;;;;;;5095762;28;19942;-70
2023/12/24 11:12:26;;;;;;;;;;;7.60;99.90;;;;;;5095117;28;19924;-72
2023/12/24 11:14:53;;;;;;;;;;;7.70;99.90;;;;;;5105944;28;19974;-71
2023/12/24 11:17:35;;;;;;;;;;;7.70;99.90;;;;;;5104337;28;20156;-73
2023/12/24 11:20:17;;;;;;;;;;;7.70;99.90;;;;;;5102081;28;19919;-71
2023/12/24 11:23:09;;;;;;;;;;;7.70;99.90;;;;;;5104770;28;19920;-71
2023/12/24 11:25:37;;;;;;;;;;;7.70;99.90;;;;;;5102928;28;19926;-71
2023/12/24 11:28:04;;;;;;;;;;;7.70;99.90;;;;;;5105216;28;19951;-71
2023/12/24 11:30:30;;;;;;;;;;;7.70;99.90;;;;;;5107079;28;19951;-71
2023/12/24 11:32:57;;;;;;;;;;;7.70;99.90;;;;;;5117068;28;19987;-73
2023/12/24 11:35:42;;;;;;;;;;;7.70;99.90;;;;;;5099198;28;19994;-71
2023/12/24 11:38:35;;;;;;;;;;;7.70;99.90;;;;;;5095485;28;19952;-73
2023/12/24 11:41:06;;;;;;;;;;;7.80;99.90;;;;;;5098454;28;20166;-72
2023/12/24 11:43:33;;;;;;;;;;;7.80;99.90;;;;;;5102569;28;19927;-74
2023/12/24 11:46:00;;;;;;;;;;;7.80;99.90;;;;;;5107670;28;19987;-73
2023/12/24 11:48:28;;;;;;;;;;;7.90;99.90;;;;;;5104766;28;19947;-73
2023/12/24 11:51:01;;;;;;;;;;;7.90;99.90;;;;;;5110968;28;19982;-72
2023/12/24 11:53:28;;;;;;;;;;;7.90;99.90;;;;;;5103298;28;19999;-72
2023/12/24 11:56:10;;;;;;;;;;;7.90;99.90;;;;;;5104751;28;19955;-79
2023/12/24 11:58:37;;;;;;;;;;;7.80;99.90;;;;;;5091967;28;19920;-72
2023/12/24 12:01:04;;;;;;;;;;;7.80;99.90;;;;;;5106491;28;19988;-72
2023/12/24 12:03:31;;;;;;;;;;;7.90;99.90;;;;;;5107526;28;20148;-71
2023/12/24 12:05:57;;;;;;;;;;;7.90;99.90;;;;;;5110130;28;19947;-72
2023/12/24 12:08:24;;;;;;;;;;;7.90;99.90;;;;;;5107090;28;19982;-72
2023/12/24 12:10:51;;;;;;;;;;;8.00;99.90;;;;;;5110972;28;20117;-71
2023/12/24 12:13:19;;;;;;;;;;;8.00;99.90;;;;;;5104742;28;19920;-72
2023/12/24 12:15:46;;;;;;;;;;;7.90;99.90;;;;;;5108638;28;19962;-72
2023/12/24 12:18:14;;;;;;;;;;;7.90;99.90;;;;;;5109591;28;19943;-74
2023/12/24 12:20:40;;;;;;;;;;;7.90;99.90;;;;;;5111761;28;19920;-72
2023/12/24 12:23:07;;;;;;;;;;;8.00;99.90;;;;;;5114766;28;19920;-72
2023/12/24 12:25:34;;;;;;;;;;;8.00;99.90;;;;;;5110606;28;19963;-72
2023/12/24 12:28:01;;;;;;;;;;;8.00;99.90;;;;;;5113696;28;19951;-74
2023/12/24 12:30:29;;;;;;;;;;;8.00;99.90;;;;;;5113949;28;19941;-71
2023/12/24 12:32:55;;;;;;;;;;;8.00;99.90;;;;;;5112574;28;20319;-72
2023/12/24 12:35:22;;;;;;;;;;;8.10;99.90;;;;;;5110418;28;19924;-74
2023/12/24 12:37:49;;;;;;;;;;;8.10;99.90;;;;;;5110934;28;19975;-72
2023/12/24 12:40:15;;;;;;;;;;;8.10;99.90;;;;;;5107843;28;19920;-72
2023/12/24 12:42:42;;;;;;;;;;;8.10;99.90;;;;;;5110045;28;19967;-72
2023/12/24 12:45:09;;;;;;;;;;;8.10;99.90;;;;;;5108767;28;19979;-72
2023/12/24 12:47:37;;;;;;;;;;;8.10;99.90;;;;;;5109289;28;19928;-72
2023/12/24 12:50:05;;;;;;;;;;;8.10;99.90;;;;;;5115351;28;19952;-72
2023/12/24 12:52:31;;;;;;;;;;;8.10;99.90;;;;;;5112271;28;19920;-72
2023/12/24 12:55:02;;;;;;;;;;;8.10;99.90;;;;;;5115029;28;19982;-74
2023/12/24 12:57:29;;;;;;;;;;;8.10;99.90;;;;;;5106297;28;19997;-71
2023/12/24 13:00:08;;;;;;;;;;;8.20;99.90;;;;;;5113348;28;19925;-72
2023/12/24 13:02:34;;;;;;;;;;;8.20;99.90;;;;;;5110240;28;19928;-72
2023/12/24 13:05:02;;;;;;;;;;;8.20;99.90;;;;;;5108980;28;19948;-72
2023/12/24 13:07:29;;;;;;;;;;;8.20;99.90;;;;;;5106522;28;19951;-74
2023/12/24 13:09:56;;;;;;;;;;;8.20;99.90;;;;;;5102153;28;19983;-72
2023/12/24 13:12:23;;;;;;;;;;;8.20;99.90;;;;;;5109706;28;19979;-72
2023/12/24 13:14:51;;;;;;;;;;;8.20;99.90;;;;;;5102952;28;19928;-71
2023/12/24 13:17:22;;;;;;;;;;;8.20;99.90;;;;;;5109401;28;19927;-72
2023/12/24 13:19:49;;;;;;;;;;;8.20;99.90;;;;;;5107690;28;19919;-72
2023/12/24 13:22:17;;;;;;;;;;;8.20;99.90;;;;;;5106886;28;19991;-72
2023/12/24 13:24:43;;;;;;;;;;;8.20;99.90;;;;;;5106875;28;20158;-71
2023/12/24 13:27:10;;;;;;;;;;;8.20;99.90;;;;;;5109792;28;19975;-72
2023/12/24 13:29:37;;;;;;;;;;;8.20;99.90;;;;;;5101565;28;19928;-71
2023/12/24 13:32:03;;;;;;;;;;;8.20;99.90;;;;;;5110212;28;19920;-72
2023/12/24 13:34:30;;;;;;;;;;;8.20;99.90;;;;;;5100802;28;19951;-72
2023/12/24 13:36:57;;;;;;;;;;;8.30;99.90;;;;;;5106365;28;20213;-71
2023/12/24 13:39:25;;;;;;;;;;;8.30;99.90;;;;;;5104394;28;19927;-71
2023/12/24 13:41:51;;;;;;;;;;;8.30;99.90;;;;;;5108903;28;19955;-71
2023/12/24 13:44:18;;;;;;;;;;;8.30;99.90;;;;;;5108584;28;20217;-72
2023/12/24 13:46:45;;;;;;;;;;;8.30;99.90;;;;;;5110180;28;19920;-74
2023/12/24 13:49:11;;;;;;;;;;;8.30;99.90;;;;;;5105732;28;19928;-70
2023/12/24 13:51:38;;;;;;;;;;;8.40;99.90;;;;;;5105888;28;19920;-71
2023/12/24 13:54:04;;;;;;;;;;;8.30;99.90;;;;;;5107024;28;19919;-72
2023/12/24 13:56:33;;;;;;;;;;;8.40;99.90;;;;;;5105303;28;19999;-71
2023/12/24 13:59:00;;;;;;;;;;;8.40;99.90;;;;;;5109150;28;20210;-71
2023/12/24 14:01:27;;;;;;;;;;;8.40;99.90;;;;;;5109727;28;19995;-71
2023/12/24 14:03:54;;;;;;;;;;;8.50;99.90;;;;;;5106964;28;19924;-72
2023/12/24 14:06:20;;;;;;;;;;;8.50;99.90;;;;;;5109100;28;20261;-73
2023/12/24 14:08:47;;;;;;;;;;;8.50;99.90;;;;;;5110488;28;19939;-72
2023/12/24 14:11:13;;;;;;;;;;;8.50;99.90;;;;;;5108235;28;19987;-72
2023/12/24 14:13:41;;;;;;;;;;;8.50;99.90;;;;;;5106781;28;20417;-72
2023/12/24 14:16:08;;;;;;;;;;;8.50;99.90;;;;;;5103013;28;19995;-74
2023/12/24 14:18:35;;;;;;;;;;;8.50;99.90;;;;;;5106694;28;20304;-70
2023/12/24 14:21:02;;;;;;;;;;;8.50;99.90;;;;;;5104661;28;19988;-72
2023/12/24 14:23:28;;;;;;;;;;;8.50;99.90;;;;;;5108844;28;19991;-72
2023/12/24 14:25:55;;;;;;;;;;;8.50;99.90;;;;;;5099336;28;19920;-72
2023/12/24 14:28:22;;;;;;;;;;;8.50;99.90;;;;;;5106437;28;19920;-73
2023/12/24 14:30:50;;;;;;;;;;;8.50;99.90;;;;;;5106820;28;19920;-72
2023/12/24 14:33:16;;;;;;;;;;;8.60;99.90;;;;;;5103594;28;19955;-71
2023/12/24 14:35:44;;;;;;;;;;;8.60;99.90;;;;;;5102159;28;20190;-71